createdAt,value
2022-11-06T00:03:25.714Z,15.50
2022-11-06T00:09:27.789Z,15.50
2022-11-06T00:15:29.783Z,15.50
2022-11-06T00:21:32.029Z,15.50
2022-11-06T00:27:37.568Z,15.50
2022-11-06T00:33:40.218Z,15.50
2022-11-06T00:39:42.147Z,15.50
2022-11-06T00:45:44.185Z,15.50
2022-11-06T00:51:46.487Z,15.50
2022-11-06T00:57:48.680Z,15.50
2022-11-06T01:03:56.558Z,15.50
2022-11-06T01:09:58.753Z,15.50
2022-11-06T01:16:00.898Z,15.50
2022-11-06T01:22:03.093Z,15.60
2022-11-06T01:28:05.664Z,15.60
2022-11-06T01:34:08.015Z,15.60
2022-11-06T01:40:10.579Z,15.60
2022-11-06T01:46:13.001Z,15.60
2022-11-06T01:52:16.176Z,15.60
2022-11-06T01:58:21.914Z,15.60
2022-11-06T02:04:27.354Z,15.60
2022-11-06T02:10:30.023Z,15.50
2022-11-06T02:16:46.279Z,15.60
2022-11-06T02:23:31.966Z,15.50
2022-11-06T02:29:37.052Z,15.50
2022-11-06T02:36:02.040Z,15.50
2022-11-06T02:42:06.229Z,15.40
2022-11-06T02:48:11.114Z,15.40
2022-11-06T02:54:14.640Z,15.40
2022-11-06T03:00:17.635Z,15.40
2022-11-06T03:06:41.474Z,15.40
2022-11-06T03:12:58.850Z,15.40
2022-11-06T03:19:08.120Z,15.40
2022-11-06T03:25:28.791Z,15.40
2022-11-06T03:31:36.921Z,15.40
2022-11-06T03:38:08.580Z,15.40
2022-11-06T03:44:15.050Z,15.40
2022-11-06T03:50:38.212Z,15.30
2022-11-06T03:57:02.945Z,15.30
2022-11-06T04:03:13.965Z,15.30
2022-11-06T04:09:37.102Z,15.30
2022-11-06T04:15:49.340Z,15.20
2022-11-06T04:21:57.523Z,15.20
2022-11-06T04:28:27.006Z,15.30
2022-11-06T04:34:56.012Z,15.20
2022-11-06T04:41:26.956Z,15.30
2022-11-06T04:47:29.747Z,15.20
2022-11-06T04:53:33.460Z,15.20
2022-11-06T04:59:37.331Z,15.30
2022-11-06T05:05:39.510Z,15.30
2022-11-06T05:11:41.376Z,15.30
2022-11-06T05:17:43.498Z,15.30
2022-11-06T05:23:45.744Z,15.30
2022-11-06T05:29:47.821Z,15.30
2022-11-06T05:35:50.529Z,15.30
2022-11-06T05:41:52.715Z,15.30
2022-11-06T05:47:54.653Z,15.30
2022-11-06T05:53:56.753Z,15.40
2022-11-06T05:59:59.415Z,15.40
2022-11-06T06:06:01.329Z,15.50
2022-11-06T06:12:03.415Z,15.50
2022-11-06T06:18:06.328Z,15.50
2022-11-06T06:24:08.423Z,15.60
2022-11-06T06:30:11.244Z,15.60
2022-11-06T06:36:13.100Z,15.60
2022-11-06T06:42:15.393Z,15.70
2022-11-06T06:48:17.649Z,15.70
2022-11-06T06:54:19.878Z,15.80
2022-11-06T07:00:21.915Z,15.80
2022-11-06T07:06:24.826Z,15.90
2022-11-06T07:12:27.767Z,16.00
2022-11-06T07:18:29.864Z,15.90
2022-11-06T07:24:31.909Z,16.10
2022-11-06T07:30:35.909Z,15.90
2022-11-06T07:36:38.066Z,16.10
2022-11-06T07:42:43.526Z,16.20
2022-11-06T07:48:50.529Z,16.40
2022-11-06T07:54:52.625Z,16.50
2022-11-06T08:00:57.579Z,16.70
2022-11-06T08:06:59.560Z,16.80
2022-11-06T08:13:01.748Z,16.80
2022-11-06T08:19:03.805Z,16.70
2022-11-06T08:25:06.986Z,16.80
2022-11-06T08:31:09.705Z,16.70
2022-11-06T08:37:11.996Z,16.60
2022-11-06T08:43:14.441Z,16.60
2022-11-06T08:49:16.618Z,16.70
2022-11-06T08:55:18.821Z,16.70
2022-11-06T09:01:21.123Z,16.70
2022-11-06T09:07:23.413Z,16.70
2022-11-06T09:13:25.471Z,16.80
2022-11-06T09:19:27.622Z,16.90
2022-11-06T09:25:30.278Z,17.20
2022-11-06T09:31:32.812Z,17.60
2022-11-06T09:37:34.822Z,17.50
2022-11-06T09:44:06.197Z,17.80
2022-11-06T09:50:16.987Z,17.80
2022-11-06T09:56:22.004Z,18.00
2022-11-06T10:02:34.088Z,17.90
2022-11-06T10:08:36.556Z,18.00
2022-11-06T10:14:52.800Z,18.20
2022-11-06T10:21:03.877Z,18.40
2022-11-06T10:27:18.950Z,18.30
2022-11-06T10:33:39.119Z,18.50
2022-11-06T10:39:41.591Z,18.60
2022-11-06T10:45:45.798Z,18.60
2022-11-06T10:51:57.864Z,18.70
2022-11-06T10:58:02.422Z,19.10
2022-11-06T11:04:04.638Z,19.20
2022-11-06T11:10:26.752Z,19.40
2022-11-06T11:16:32.426Z,19.80
2022-11-06T11:22:34.733Z,20.00
2022-11-06T11:28:37.996Z,20.10
2022-11-06T11:34:51.383Z,20.20
2022-11-06T11:41:12.102Z,19.90
2022-11-06T11:47:23.928Z,20.30
2022-11-06T11:53:26.000Z,22.40
2022-11-06T11:59:38.685Z,20.50
2022-11-06T12:05:41.481Z,19.80
2022-11-06T12:11:43.988Z,19.60
2022-11-06T12:18:03.544Z,19.60
2022-11-06T12:24:39.582Z,19.40
2022-11-06T12:30:44.380Z,19.50
2022-11-06T12:37:14.099Z,19.50
2022-11-06T12:43:35.227Z,19.40
2022-11-06T12:49:43.281Z,19.20
2022-11-06T12:56:15.418Z,18.80
2022-11-06T13:02:43.586Z,18.70
2022-11-06T13:08:52.006Z,18.60
2022-11-06T13:14:53.973Z,18.60
2022-11-06T13:21:20.273Z,18.40
2022-11-06T13:27:31.682Z,18.30
2022-11-06T13:33:56.961Z,18.20
2022-11-06T13:40:10.548Z,18.10
2022-11-06T13:46:41.205Z,18.10
2022-11-06T13:53:07.862Z,18.00
2022-11-06T13:59:47.038Z,17.90
2022-11-06T14:06:26.733Z,17.80
2022-11-06T14:12:28.940Z,17.70
2022-11-06T14:18:32.468Z,17.60
2022-11-06T14:24:42.002Z,17.50
2022-11-06T14:31:11.129Z,17.30
2022-11-06T14:37:18.848Z,17.20
2022-11-06T14:43:28.014Z,17.10
2022-11-06T14:49:44.179Z,16.90
2022-11-06T14:55:59.467Z,16.80
2022-11-06T15:02:24.947Z,16.70
2022-11-06T15:08:45.892Z,16.60
2022-11-06T15:14:48.350Z,16.50
2022-11-06T15:20:53.771Z,16.40
2022-11-06T15:26:59.737Z,16.40
2022-11-06T15:33:04.692Z,16.20
2022-11-06T15:39:34.905Z,16.20
2022-11-06T15:45:37.636Z,16.10
2022-11-06T15:51:40.524Z,16.10
2022-11-06T15:57:46.036Z,16.10
2022-11-06T16:03:52.361Z,16.10
2022-11-06T16:09:54.544Z,16.10
2022-11-06T16:16:03.047Z,16.10
2022-11-06T16:22:29.775Z,16.00
2022-11-06T16:28:33.514Z,16.00
2022-11-06T16:34:40.131Z,16.00
2022-11-06T16:40:45.044Z,15.90
2022-11-06T16:47:05.296Z,15.90
2022-11-06T16:53:10.350Z,15.80
2022-11-06T16:59:16.841Z,15.80
2022-11-06T17:05:24.572Z,15.80
2022-11-06T17:11:26.739Z,15.90
2022-11-06T17:17:28.757Z,15.90
2022-11-06T17:23:31.871Z,15.90
2022-11-06T17:29:36.781Z,15.80
2022-11-06T17:35:39.089Z,15.80
2022-11-06T17:41:41.568Z,15.70
2022-11-06T17:47:43.807Z,15.70
2022-11-06T17:53:46.011Z,15.70
2022-11-06T17:59:48.414Z,15.70
2022-11-06T18:05:50.740Z,15.60
2022-11-06T18:11:54.737Z,15.50
2022-11-06T18:17:56.993Z,15.50
2022-11-06T18:24:00.097Z,15.40
2022-11-06T18:30:02.574Z,15.40
2022-11-06T18:36:06.292Z,15.40
2022-11-06T18:42:08.358Z,15.30
2022-11-06T18:48:10.834Z,15.30
2022-11-06T18:54:13.149Z,15.30
2022-11-06T19:00:15.715Z,15.20
2022-11-06T19:06:19.032Z,15.20
2022-11-06T19:12:21.287Z,15.20
2022-11-06T19:18:23.670Z,15.20
2022-11-06T19:24:25.890Z,15.20
2022-11-06T19:30:28.757Z,15.10
2022-11-06T19:36:32.190Z,15.20
2022-11-06T19:42:34.665Z,15.10
2022-11-06T19:48:37.031Z,15.10
2022-11-06T19:54:39.418Z,15.10
2022-11-06T20:00:42.136Z,15.10
2022-11-06T20:06:45.610Z,15.00
2022-11-06T20:12:48.115Z,15.00
2022-11-06T20:18:52.196Z,15.00
2022-11-06T20:24:54.501Z,14.90
2022-11-06T20:30:56.792Z,14.90
2022-11-06T20:36:59.833Z,14.90
2022-11-06T20:43:02.442Z,14.90
2022-11-06T20:49:04.566Z,14.90
2022-11-06T20:55:07.078Z,14.90
2022-11-06T21:01:17.499Z,14.90
2022-11-06T21:07:19.858Z,14.80
2022-11-06T21:13:21.983Z,14.80
2022-11-06T21:19:24.515Z,14.80
2022-11-06T21:25:26.660Z,14.70
2022-11-06T21:31:31.122Z,14.70
2022-11-06T21:37:33.511Z,14.70
2022-11-06T21:43:35.940Z,14.70
2022-11-06T21:49:38.046Z,14.60
2022-11-06T21:55:59.029Z,14.60
2022-11-06T22:02:01.381Z,14.50
2022-11-06T22:08:03.539Z,14.30
2022-11-06T22:14:12.124Z,14.10
2022-11-06T22:20:14.170Z,14.00
2022-11-06T22:26:22.442Z,13.80
2022-11-06T22:32:24.770Z,13.70
2022-11-06T22:38:27.232Z,13.60
2022-11-06T22:44:33.302Z,13.70
2022-11-06T22:50:35.889Z,13.80
2022-11-06T22:56:38.298Z,13.90
2022-11-06T23:02:40.688Z,13.90
2022-11-06T23:08:46.947Z,14.00
2022-11-06T23:14:49.625Z,14.00
2022-11-06T23:20:51.801Z,14.00
2022-11-06T23:26:53.984Z,14.00
2022-11-06T23:32:56.402Z,13.90
2022-11-06T23:38:58.760Z,13.90
2022-11-06T23:45:19.217Z,13.90
2022-11-06T23:51:21.845Z,13.90
2022-11-06T23:57:24.040Z,13.90
